sensor_id;sensor_type;location;lat;lon;timestamp;P1;durP1;ratioP1;P2;durP2;ratioP2
23754;SDS011;12057;52.042;6.830;2022-10-04T00:03:42;25.75;;;7.78;;
23754;SDS011;12057;52.042;6.830;2022-10-04T00:08:47;28.42;;;8.52;;
23754;SDS011;12057;52.042;6.830;2022-10-04T00:14:15;30.10;;;9.10;;
23754;SDS011;12057;52.042;6.830;2022-10-04T00:19:26;22.92;;;8.75;;
23754;SDS011;12057;52.042;6.830;2022-10-04T00:30:22;31.42;;;7.82;;
23754;SDS011;12057;52.042;6.830;2022-10-04T00:40:31;22.98;;;7.78;;
23754;SDS011;12057;52.042;6.830;2022-10-04T00:45:43;32.33;;;8.02;;
23754;SDS011;12057;52.042;6.830;2022-10-04T00:51:01;23.98;;;8.73;;
23754;SDS011;12057;52.042;6.830;2022-10-04T00:56:30;20.42;;;7.97;;
23754;SDS011;12057;52.042;6.830;2022-10-04T01:01:42;31.95;;;9.10;;
23754;SDS011;12057;52.042;6.830;2022-10-04T01:06:46;26.45;;;8.80;;
23754;SDS011;12057;52.042;6.830;2022-10-04T01:11:49;20.93;;;9.50;;
23754;SDS011;12057;52.042;6.830;2022-10-04T01:16:58;37.20;;;8.75;;
23754;SDS011;12057;52.042;6.830;2022-10-04T01:27:29;26.02;;;9.10;;
23754;SDS011;12057;52.042;6.830;2022-10-04T01:32:44;19.80;;;8.05;;
23754;SDS011;12057;52.042;6.830;2022-10-04T01:37:44;24.93;;;8.13;;
23754;SDS011;12057;52.042;6.830;2022-10-04T01:42:47;25.30;;;8.60;;
23754;SDS011;12057;52.042;6.830;2022-10-04T01:47:54;19.10;;;7.85;;
23754;SDS011;12057;52.042;6.830;2022-10-04T01:53:00;23.60;;;8.27;;
23754;SDS011;12057;52.042;6.830;2022-10-04T01:58:24;23.83;;;8.23;;
23754;SDS011;12057;52.042;6.830;2022-10-04T02:03:29;31.77;;;8.95;;
23754;SDS011;12057;52.042;6.830;2022-10-04T02:08:37;15.98;;;8.05;;
23754;SDS011;12057;52.042;6.830;2022-10-04T02:13:44;19.75;;;8.50;;
23754;SDS011;12057;52.042;6.830;2022-10-04T02:18:49;27.15;;;9.18;;
23754;SDS011;12057;52.042;6.830;2022-10-04T02:23:50;28.65;;;7.80;;
23754;SDS011;12057;52.042;6.830;2022-10-04T02:28:52;24.08;;;8.48;;
23754;SDS011;12057;52.042;6.830;2022-10-04T02:33:54;22.93;;;8.10;;
23754;SDS011;12057;52.042;6.830;2022-10-04T02:38:59;30.92;;;8.70;;
23754;SDS011;12057;52.042;6.830;2022-10-04T02:54:45;36.85;;;9.57;;
23754;SDS011;12057;52.042;6.830;2022-10-04T02:59:59;30.88;;;8.38;;
23754;SDS011;12057;52.042;6.830;2022-10-04T03:05:09;37.30;;;9.73;;
23754;SDS011;12057;52.042;6.830;2022-10-04T03:10:13;23.83;;;9.30;;
23754;SDS011;12057;52.042;6.830;2022-10-04T03:15:14;45.07;;;10.47;;
23754;SDS011;12057;52.042;6.830;2022-10-04T03:20:15;30.90;;;13.17;;
23754;SDS011;12057;52.042;6.830;2022-10-04T03:25:30;23.85;;;10.13;;
23754;SDS011;12057;52.042;6.830;2022-10-04T03:30:55;27.42;;;9.82;;
23754;SDS011;12057;52.042;6.830;2022-10-04T03:35:57;35.97;;;10.13;;
23754;SDS011;12057;52.042;6.830;2022-10-04T03:41:00;34.38;;;12.65;;
23754;SDS011;12057;52.042;6.830;2022-10-04T03:46:01;33.38;;;11.02;;
23754;SDS011;12057;52.042;6.830;2022-10-04T03:51:06;33.45;;;9.55;;
23754;SDS011;12057;52.042;6.830;2022-10-04T03:56:16;45.80;;;14.00;;
23754;SDS011;12057;52.042;6.830;2022-10-04T04:06:53;29.90;;;9.90;;
23754;SDS011;12057;52.042;6.830;2022-10-04T04:12:05;34.72;;;9.80;;
23754;SDS011;12057;52.042;6.830;2022-10-04T04:22:26;38.67;;;9.95;;
23754;SDS011;12057;52.042;6.830;2022-10-04T04:27:31;25.02;;;9.50;;
23754;SDS011;12057;52.042;6.830;2022-10-04T04:32:36;27.60;;;9.60;;
23754;SDS011;12057;52.042;6.830;2022-10-04T04:37:43;44.42;;;10.35;;
23754;SDS011;12057;52.042;6.830;2022-10-04T04:42:44;31.67;;;9.97;;
23754;SDS011;12057;52.042;6.830;2022-10-04T04:47:52;33.45;;;10.35;;
23754;SDS011;12057;52.042;6.830;2022-10-04T04:52:58;46.20;;;10.82;;
23754;SDS011;12057;52.042;6.830;2022-10-04T04:58:22;36.45;;;10.73;;
23754;SDS011;12057;52.042;6.830;2022-10-04T05:03:25;34.90;;;11.55;;
23754;SDS011;12057;52.042;6.830;2022-10-04T05:08:32;55.83;;;11.10;;
23754;SDS011;12057;52.042;6.830;2022-10-04T05:13:38;39.75;;;12.65;;
23754;SDS011;12057;52.042;6.830;2022-10-04T05:18:56;38.10;;;10.10;;
23754;SDS011;12057;52.042;6.830;2022-10-04T05:29:25;30.50;;;10.50;;
23754;SDS011;12057;52.042;6.830;2022-10-04T05:34:29;30.45;;;10.25;;
23754;SDS011;12057;52.042;6.830;2022-10-04T05:39:42;35.22;;;10.50;;
23754;SDS011;12057;52.042;6.830;2022-10-04T05:44:55;29.15;;;10.23;;
23754;SDS011;12057;52.042;6.830;2022-10-04T05:49:57;41.30;;;11.18;;
23754;SDS011;12057;52.042;6.830;2022-10-04T06:00:16;35.20;;;11.40;;
23754;SDS011;12057;52.042;6.830;2022-10-04T06:21:30;33.03;;;11.52;;
23754;SDS011;12057;52.042;6.830;2022-10-04T06:26:47;32.75;;;11.55;;
23754;SDS011;12057;52.042;6.830;2022-10-04T06:32:00;32.80;;;12.38;;
23754;SDS011;12057;52.042;6.830;2022-10-04T06:37:09;40.78;;;11.45;;
23754;SDS011;12057;52.042;6.830;2022-10-04T06:53:32;44.42;;;11.13;;
23754;SDS011;12057;52.042;6.830;2022-10-04T07:09:20;25.85;;;10.82;;
23754;SDS011;12057;52.042;6.830;2022-10-04T07:14:26;31.65;;;11.70;;
23754;SDS011;12057;52.042;6.830;2022-10-04T07:19:35;31.15;;;11.57;;
23754;SDS011;12057;52.042;6.830;2022-10-04T07:29:57;24.77;;;10.37;;
23754;SDS011;12057;52.042;6.830;2022-10-04T07:35:03;34.33;;;11.82;;
23754;SDS011;12057;52.042;6.830;2022-10-04T07:46:05;26.77;;;10.27;;
23754;SDS011;12057;52.042;6.830;2022-10-04T07:56:29;35.92;;;9.63;;
23754;SDS011;12057;52.042;6.830;2022-10-04T08:01:38;31.17;;;8.82;;
23754;SDS011;12057;52.042;6.830;2022-10-04T08:23:14;29.37;;;8.80;;
23754;SDS011;12057;52.042;6.830;2022-10-04T08:28:43;29.55;;;7.35;;
23754;SDS011;12057;52.042;6.830;2022-10-04T08:39:46;28.55;;;9.73;;
23754;SDS011;12057;52.042;6.830;2022-10-04T09:01:02;19.08;;;6.13;;
23754;SDS011;12057;52.042;6.830;2022-10-04T09:12:07;19.60;;;7.10;;
23754;SDS011;12057;52.042;6.830;2022-10-04T09:17:21;16.15;;;5.75;;
23754;SDS011;12057;52.042;6.830;2022-10-04T09:27:46;29.37;;;7.10;;
23754;SDS011;12057;52.042;6.830;2022-10-04T09:33:06;19.25;;;6.90;;
23754;SDS011;12057;52.042;6.830;2022-10-04T09:59:41;16.70;;;5.13;;
23754;SDS011;12057;52.042;6.830;2022-10-04T10:27:18;21.15;;;4.80;;
23754;SDS011;12057;52.042;6.830;2022-10-04T10:43:37;16.57;;;4.77;;
23754;SDS011;12057;52.042;6.830;2022-10-04T10:59:58;18.63;;;6.00;;
23754;SDS011;12057;52.042;6.830;2022-10-04T11:41:45;17.80;;;5.68;;
23754;SDS011;12057;52.042;6.830;2022-10-04T12:19:00;12.70;;;4.37;;
23754;SDS011;12057;52.042;6.830;2022-10-04T13:00:57;15.27;;;4.72;;
23754;SDS011;12057;52.042;6.830;2022-10-04T13:12:02;19.13;;;4.65;;
23754;SDS011;12057;52.042;6.830;2022-10-04T13:33:40;12.02;;;4.50;;
23754;SDS011;12057;52.042;6.830;2022-10-04T13:44:38;9.98;;;3.90;;
23754;SDS011;12057;52.042;6.830;2022-10-04T13:55:22;12.25;;;3.55;;
23754;SDS011;12057;52.042;6.830;2022-10-04T14:26:52;10.23;;;3.30;;
23754;SDS011;12057;52.042;6.830;2022-10-04T15:30:45;16.85;;;3.95;;
23754;SDS011;12057;52.042;6.830;2022-10-04T15:41:53;10.55;;;3.53;;
23754;SDS011;12057;52.042;6.830;2022-10-04T15:58:21;13.25;;;4.07;;
23754;SDS011;12057;52.042;6.830;2022-10-04T16:24:53;17.27;;;4.80;;
23754;SDS011;12057;52.042;6.830;2022-10-04T16:30:21;18.80;;;4.88;;
23754;SDS011;12057;52.042;6.830;2022-10-04T16:40:37;20.17;;;4.22;;
23754;SDS011;12057;52.042;6.830;2022-10-04T16:51:20;14.85;;;5.45;;
23754;SDS011;12057;52.042;6.830;2022-10-04T16:57:08;15.70;;;5.15;;
23754;SDS011;12057;52.042;6.830;2022-10-04T17:17:46;12.00;;;4.18;;
23754;SDS011;12057;52.042;6.830;2022-10-04T17:28:28;15.45;;;4.70;;
23754;SDS011;12057;52.042;6.830;2022-10-04T17:54:51;17.88;;;5.38;;
23754;SDS011;12057;52.042;6.830;2022-10-04T18:00:25;16.23;;;5.28;;
23754;SDS011;12057;52.042;6.830;2022-10-04T18:10:55;17.77;;;5.28;;
23754;SDS011;12057;52.042;6.830;2022-10-04T18:21:20;22.70;;;9.85;;
23754;SDS011;12057;52.042;6.830;2022-10-04T18:26:32;15.32;;;7.10;;
23754;SDS011;12057;52.042;6.830;2022-10-04T18:31:39;24.73;;;6.33;;
23754;SDS011;12057;52.042;6.830;2022-10-04T18:36:50;15.23;;;5.82;;
23754;SDS011;12057;52.042;6.830;2022-10-04T18:41:58;15.40;;;6.00;;
23754;SDS011;12057;52.042;6.830;2022-10-04T18:47:17;13.43;;;5.83;;
23754;SDS011;12057;52.042;6.830;2022-10-04T18:52:35;14.40;;;5.13;;
23754;SDS011;12057;52.042;6.830;2022-10-04T18:58:05;11.52;;;4.90;;
23754;SDS011;12057;52.042;6.830;2022-10-04T19:29:40;17.37;;;6.13;;
23754;SDS011;12057;52.042;6.830;2022-10-04T19:35:06;12.68;;;5.78;;
23754;SDS011;12057;52.042;6.830;2022-10-04T19:51:38;24.25;;;6.20;;
23754;SDS011;12057;52.042;6.830;2022-10-04T19:56:49;14.15;;;6.47;;
23754;SDS011;12057;52.042;6.830;2022-10-04T20:01:55;21.02;;;5.65;;
23754;SDS011;12057;52.042;6.830;2022-10-04T20:06:56;25.77;;;6.13;;
23754;SDS011;12057;52.042;6.830;2022-10-04T20:11:58;26.52;;;7.00;;
23754;SDS011;12057;52.042;6.830;2022-10-04T20:48:17;17.85;;;6.47;;
23754;SDS011;12057;52.042;6.830;2022-10-04T20:53:24;15.77;;;6.80;;
23754;SDS011;12057;52.042;6.830;2022-10-04T20:58:28;19.13;;;6.57;;
23754;SDS011;12057;52.042;6.830;2022-10-04T21:03:31;19.95;;;7.35;;
23754;SDS011;12057;52.042;6.830;2022-10-04T21:08:32;17.97;;;6.93;;
23754;SDS011;12057;52.042;6.830;2022-10-04T21:13:38;20.60;;;7.57;;
23754;SDS011;12057;52.042;6.830;2022-10-04T21:18:40;20.38;;;7.03;;
23754;SDS011;12057;52.042;6.830;2022-10-04T21:23:41;17.77;;;6.10;;
23754;SDS011;12057;52.042;6.830;2022-10-04T21:28:42;29.10;;;6.97;;
23754;SDS011;12057;52.042;6.830;2022-10-04T21:33:43;14.90;;;6.27;;
23754;SDS011;12057;52.042;6.830;2022-10-04T21:38:43;16.77;;;6.23;;
23754;SDS011;12057;52.042;6.830;2022-10-04T21:43:44;11.23;;;6.10;;
23754;SDS011;12057;52.042;6.830;2022-10-04T21:48:45;16.13;;;7.20;;
23754;SDS011;12057;52.042;6.830;2022-10-04T21:53:45;23.23;;;7.10;;
23754;SDS011;12057;52.042;6.830;2022-10-04T21:58:46;12.57;;;6.60;;
23754;SDS011;12057;52.042;6.830;2022-10-04T22:03:47;20.60;;;7.27;;
23754;SDS011;12057;52.042;6.830;2022-10-04T22:08:47;22.67;;;8.03;;
23754;SDS011;12057;52.042;6.830;2022-10-04T22:13:48;16.87;;;8.20;;
23754;SDS011;12057;52.042;6.830;2022-10-04T22:18:50;20.92;;;8.23;;
23754;SDS011;12057;52.042;6.830;2022-10-04T22:23:50;25.10;;;8.40;;
23754;SDS011;12057;52.042;6.830;2022-10-04T22:28:54;24.47;;;8.33;;
23754;SDS011;12057;52.042;6.830;2022-10-04T22:33:55;16.35;;;6.85;;
23754;SDS011;12057;52.042;6.830;2022-10-04T22:44:53;16.13;;;7.65;;
23754;SDS011;12057;52.042;6.830;2022-10-04T22:49:54;23.07;;;7.67;;
23754;SDS011;12057;52.042;6.830;2022-10-04T22:54:56;19.85;;;7.05;;
23754;SDS011;12057;52.042;6.830;2022-10-04T23:00:01;26.52;;;7.07;;
23754;SDS011;12057;52.042;6.830;2022-10-04T23:10:17;18.92;;;7.13;;
23754;SDS011;12057;52.042;6.830;2022-10-04T23:15:18;28.50;;;7.32;;
23754;SDS011;12057;52.042;6.830;2022-10-04T23:20:20;22.95;;;7.35;;
23754;SDS011;12057;52.042;6.830;2022-10-04T23:25:27;18.20;;;7.75;;
23754;SDS011;12057;52.042;6.830;2022-10-04T23:30:29;20.80;;;7.45;;
23754;SDS011;12057;52.042;6.830;2022-10-04T23:35:30;25.70;;;8.73;;
23754;SDS011;12057;52.042;6.830;2022-10-04T23:40:32;22.77;;;8.15;;
23754;SDS011;12057;52.042;6.830;2022-10-04T23:45:32;22.23;;;8.87;;
23754;SDS011;12057;52.042;6.830;2022-10-04T23:50:35;15.07;;;7.68;;
23754;SDS011;12057;52.042;6.830;2022-10-04T23:55:39;22.67;;;7.95;;
